createdAt,value
2018-09-01T04:00:35.250Z,86.58
2018-09-01T04:01:35.209Z,86.61
2018-09-01T04:02:35.198Z,86.79
2018-09-01T04:03:35.245Z,87.24
2018-09-01T04:04:35.176Z,87.44
2018-09-01T04:05:35.176Z,87.03
2018-09-01T04:06:35.150Z,86.82
2018-09-01T04:07:35.154Z,86.52
2018-09-01T04:08:35.141Z,86.10
2018-09-01T04:09:35.126Z,86.41
2018-09-01T04:10:35.111Z,86.21
2018-09-01T04:11:35.127Z,86.27
2018-09-01T04:12:35.080Z,86.31
2018-09-01T04:13:35.079Z,86.41
2018-09-01T04:14:35.066Z,86.21
2018-09-01T04:15:35.103Z,86.10
2018-09-01T04:16:35.036Z,86.10
2018-09-01T04:17:35.047Z,86.41
2018-09-01T04:18:35.058Z,86.41
2018-09-01T04:19:35.001Z,86.82
2018-09-01T04:20:34.990Z,87.65
2018-09-01T04:21:34.982Z,86.61
2018-09-01T04:22:34.968Z,86.52
2018-09-01T04:23:34.979Z,86.31
2018-09-01T04:24:34.947Z,86.52
2018-09-01T04:25:34.947Z,87.54
2018-09-01T04:26:34.944Z,87.65
2018-09-01T04:27:34.913Z,87.34
2018-09-01T04:28:34.914Z,87.03
2018-09-01T04:29:34.886Z,87.03
2018-09-01T04:30:34.899Z,87.03
2018-09-01T04:31:34.869Z,87.44
2018-09-01T04:32:34.856Z,86.52
2018-09-01T04:33:34.861Z,86.31
2018-09-01T04:34:34.831Z,86.61
2018-09-01T04:35:34.823Z,87.30
2018-09-01T04:36:34.813Z,87.13
2018-09-01T04:37:34.803Z,87.44
2018-09-01T04:38:34.812Z,87.34
2018-09-01T04:39:34.777Z,87.03
2018-09-01T04:40:34.774Z,87.03
2018-09-01T04:41:34.761Z,87.03
2018-09-01T04:42:34.780Z,87.34
2018-09-01T04:43:34.745Z,86.52
2018-09-01T04:44:34.724Z,85.89
2018-09-01T04:45:34.710Z,86.10
2018-09-01T04:46:34.712Z,86.41
2018-09-01T04:47:34.686Z,86.82
2018-09-01T04:48:34.688Z,87.24
2018-09-01T04:49:34.673Z,87.44
2018-09-01T04:50:34.708Z,87.03
2018-09-01T04:51:34.643Z,87.03
2018-09-01T04:52:34.643Z,87.03
2018-09-01T04:53:34.659Z,87.51
2018-09-01T04:54:34.621Z,86.61
2018-09-01T04:55:34.603Z,86.41
2018-09-01T04:56:34.590Z,85.79
2018-09-01T04:57:34.618Z,86.06
2018-09-01T04:58:34.582Z,85.79
2018-09-01T04:59:34.556Z,85.34
2018-09-01T05:00:34.546Z,85.38
2018-09-01T05:01:34.537Z,86.10
2018-09-01T05:02:34.524Z,86.00
2018-09-01T05:03:34.528Z,85.79
2018-09-01T05:04:34.525Z,85.79
2018-09-01T05:05:34.511Z,85.69
2018-09-01T05:06:34.479Z,86.00
2018-09-01T05:07:34.473Z,86.21
2018-09-01T05:08:34.465Z,86.31
2018-09-01T05:09:34.442Z,86.31
2018-09-01T05:10:34.433Z,85.79
2018-09-01T05:11:34.420Z,85.49
2018-09-01T05:12:34.413Z,85.38
2018-09-01T05:13:34.423Z,85.49
2018-09-01T05:14:34.395Z,85.28
2018-09-01T05:15:34.377Z,85.59
2018-09-01T05:16:34.386Z,85.34
2018-09-01T05:17:34.359Z,85.96
2018-09-01T05:18:34.341Z,85.65
2018-09-01T05:19:34.347Z,85.96
2018-09-01T05:20:34.317Z,85.86
2018-09-01T05:21:34.309Z,85.96
2018-09-01T05:22:34.303Z,85.86
2018-09-01T05:23:34.288Z,85.96
2018-09-01T05:24:34.290Z,85.86
2018-09-01T05:25:34.275Z,85.96
2018-09-01T05:26:34.252Z,86.13
2018-09-01T05:27:34.244Z,86.33
2018-09-01T05:28:34.231Z,86.33
2018-09-01T05:29:34.230Z,86.54
2018-09-01T05:30:34.224Z,86.02
2018-09-01T05:31:34.210Z,85.78
2018-09-01T05:32:34.190Z,85.36
2018-09-01T05:33:34.191Z,85.47
2018-09-01T05:34:34.182Z,85.47
2018-09-01T05:35:34.162Z,85.26
2018-09-01T05:36:34.241Z,84.95
2018-09-01T05:37:34.130Z,85.47
2018-09-01T05:38:34.121Z,85.06
2018-09-01T05:39:34.121Z,85.36
2018-09-01T05:40:34.103Z,84.95
2018-09-01T05:41:34.132Z,84.71
2018-09-01T05:42:34.078Z,85.26
2018-09-01T05:43:34.123Z,85.68
2018-09-01T05:44:34.061Z,85.68
2018-09-01T05:45:34.042Z,84.95
2018-09-01T05:46:34.031Z,85.16
2018-09-01T05:47:34.062Z,84.85
2018-09-01T05:48:34.008Z,84.95
2018-09-01T05:49:34.012Z,84.85
2018-09-01T05:50:34.008Z,85.57
2018-09-01T05:51:33.983Z,85.36
2018-09-01T05:52:33.964Z,85.47
2018-09-01T05:53:33.951Z,85.57
2018-09-01T05:54:33.950Z,85.26
2018-09-01T05:55:33.951Z,85.26
2018-09-01T05:56:33.942Z,85.47
2018-09-01T05:57:33.910Z,85.47
2018-09-01T05:58:33.900Z,85.47
2018-09-01T05:59:33.903Z,85.36
2018-09-01T06:00:33.905Z,85.88
2018-09-01T06:01:33.871Z,85.94
2018-09-01T06:02:33.863Z,86.05
2018-09-01T06:03:33.844Z,86.15
2018-09-01T06:04:33.845Z,86.25
2018-09-01T06:05:33.879Z,86.05
2018-09-01T06:06:33.812Z,86.46
2018-09-01T06:07:33.797Z,86.46
2018-09-01T06:08:33.784Z,86.46
2018-09-01T06:09:33.797Z,86.05
2018-09-01T06:10:33.760Z,85.33
2018-09-01T06:11:33.752Z,85.33
2018-09-01T06:12:33.761Z,85.74
2018-09-01T06:13:33.732Z,86.21
2018-09-01T06:14:33.753Z,86.05
2018-09-01T06:15:33.707Z,85.49
2018-09-01T06:16:33.696Z,86.35
2018-09-01T06:17:33.812Z,85.84
2018-09-01T06:18:33.694Z,86.00
2018-09-01T06:19:33.673Z,86.00
2018-09-01T06:20:33.652Z,86.21
2018-09-01T06:21:33.641Z,86.00
2018-09-01T06:22:33.630Z,85.18
2018-09-01T06:23:33.621Z,85.76
2018-09-01T06:24:33.621Z,85.46
2018-09-01T06:25:33.595Z,85.66
2018-09-01T06:26:33.589Z,85.66
2018-09-01T06:27:33.575Z,85.76
2018-09-01T06:28:33.563Z,85.66
2018-09-01T06:29:33.565Z,85.25
2018-09-01T06:30:33.544Z,85.35
2018-09-01T06:31:33.534Z,85.31
2018-09-01T06:32:33.520Z,85.11
2018-09-01T06:33:33.515Z,85.31
2018-09-01T06:34:33.507Z,85.17
2018-09-01T06:35:33.487Z,84.10
2018-09-01T06:36:33.474Z,83.80
2018-09-01T06:37:33.482Z,83.34
2018-09-01T06:38:33.452Z,82.90
2018-09-01T06:39:33.452Z,82.18
2018-09-01T06:40:33.428Z,81.94
2018-09-01T06:41:33.456Z,81.43
2018-09-01T06:42:33.506Z,81.59
2018-09-01T06:43:33.398Z,80.36
2018-09-01T06:44:33.407Z,80.53
2018-09-01T06:45:33.376Z,80.74
2018-09-01T06:46:33.363Z,80.43
2018-09-01T06:47:33.376Z,79.78
2018-09-01T06:48:33.343Z,80.29
2018-09-01T06:49:33.357Z,79.13
2018-09-01T06:50:33.323Z,79.02
2018-09-01T06:51:33.376Z,77.35
2018-09-01T06:52:33.294Z,76.60
2018-09-01T06:53:33.283Z,76.16
2018-09-01T06:54:33.289Z,76.26
2018-09-01T06:55:33.270Z,76.43
2018-09-01T06:56:33.253Z,75.31
2018-09-01T06:57:33.237Z,75.16
2018-09-01T06:58:33.230Z,75.13
2018-09-01T06:59:33.232Z,74.11
2018-09-01T07:00:33.212Z,73.60
2018-09-01T07:01:33.201Z,74.99
2018-09-01T07:02:33.182Z,74.35
2018-09-01T07:03:33.258Z,74.01
2018-09-01T07:04:33.192Z,72.58
2018-09-01T07:05:33.149Z,73.36
2018-09-01T07:06:33.140Z,72.21
2018-09-01T07:07:33.128Z,72.01
2018-09-01T07:08:33.125Z,70.89
2018-09-01T07:09:33.116Z,71.09
2018-09-01T07:10:33.100Z,70.55
2018-09-01T07:11:33.082Z,70.14
2018-09-01T07:12:33.084Z,71.03
2018-09-01T07:13:33.062Z,70.72
2018-09-01T07:14:33.061Z,69.40
2018-09-01T07:15:33.036Z,70.01
2018-09-01T07:16:33.036Z,69.70
2018-09-01T07:17:33.016Z,68.86
2018-09-01T07:18:33.005Z,68.35
2018-09-01T07:19:33.020Z,68.96
2018-09-01T07:20:32.980Z,69.37
2018-09-01T07:21:32.974Z,68.66
2018-09-01T07:22:32.966Z,68.15
2018-09-01T07:23:32.952Z,68.01
2018-09-01T07:24:32.937Z,68.32
2018-09-01T07:25:32.938Z,68.83
2018-09-01T07:26:32.918Z,68.79
2018-09-01T07:27:32.921Z,68.56
2018-09-01T07:28:32.903Z,67.82
2018-09-01T07:29:32.884Z,67.25
2018-09-01T07:30:32.992Z,64.51
2018-09-01T07:31:33.339Z,64.07
2018-09-01T07:32:32.848Z,63.54
2018-09-01T07:33:32.838Z,63.61
2018-09-01T07:34:32.828Z,63.58
2018-09-01T07:35:32.829Z,62.54
2018-09-01T07:36:32.803Z,62.74
2018-09-01T07:37:32.793Z,62.41
2018-09-01T07:38:32.791Z,61.30
2018-09-01T07:39:32.774Z,60.97
2018-09-01T07:40:32.776Z,60.64
2018-09-01T07:41:32.749Z,61.82
2018-09-01T07:42:32.735Z,59.70
2018-09-01T07:43:32.734Z,58.76
2018-09-01T07:44:32.716Z,58.16
2018-09-01T07:45:32.716Z,57.15
2018-09-01T07:46:32.696Z,58.34
2018-09-01T07:47:32.689Z,57.50
2018-09-01T07:48:32.675Z,55.71
2018-09-01T07:49:32.660Z,56.60
2018-09-01T07:50:32.663Z,56.12
2018-09-01T07:51:32.640Z,57.73
2018-09-01T07:52:32.628Z,57.00
2018-09-01T07:53:32.621Z,56.49
2018-09-01T07:54:32.620Z,56.16
2018-09-01T07:55:32.603Z,55.46
2018-09-01T07:56:32.583Z,57.48
2018-09-01T07:57:32.575Z,55.54
2018-09-01T07:58:32.560Z,55.51
2018-09-01T07:59:32.548Z,55.31
2018-09-01T08:00:32.549Z,56.41
2018-09-01T08:01:32.525Z,54.71
2018-09-01T08:02:32.514Z,55.11
2018-09-01T08:03:32.503Z,53.67
2018-09-01T08:04:32.497Z,53.80
2018-09-01T08:05:32.497Z,55.61
2018-09-01T08:06:32.472Z,56.41
2018-09-01T08:07:32.556Z,55.51
2018-09-01T08:08:32.452Z,55.03
2018-09-01T08:09:32.442Z,55.81
2018-09-01T08:10:32.443Z,54.17
2018-09-01T08:11:32.415Z,53.77
2018-09-01T08:12:32.405Z,53.88
2018-09-01T08:13:32.395Z,55.18
2018-09-01T08:14:32.391Z,55.21
2018-09-01T08:15:32.383Z,54.03
2018-09-01T08:16:32.363Z,54.13
2018-09-01T08:17:32.371Z,54.91
2018-09-01T08:18:32.340Z,53.88
2018-09-01T08:19:32.333Z,54.08
2018-09-01T08:20:32.336Z,54.68
2018-09-01T08:21:32.328Z,54.85
2018-09-01T08:22:32.300Z,54.15
2018-09-01T08:23:32.288Z,54.05
2018-09-01T08:24:32.272Z,53.42
2018-09-01T08:25:32.283Z,52.42
2018-09-01T08:26:32.253Z,51.72
2018-09-01T08:27:32.241Z,52.80
2018-09-01T08:28:32.231Z,52.26
2018-09-01T08:29:32.216Z,52.14
2018-09-01T08:30:32.217Z,51.14
2018-09-01T08:31:32.194Z,51.24
2018-09-01T08:32:32.184Z,50.84
2018-09-01T08:33:32.195Z,50.11
2018-09-01T08:34:32.161Z,50.62
2018-09-01T08:35:32.161Z,49.99
2018-09-01T08:36:32.140Z,49.26
2018-09-01T08:37:32.129Z,49.37
2018-09-01T08:38:32.122Z,49.89
2018-09-01T08:39:32.108Z,50.74
2018-09-01T08:40:32.106Z,52.32
2018-09-01T08:41:32.084Z,51.67
2018-09-01T08:42:32.074Z,51.74
2018-09-01T08:43:32.071Z,51.14
2018-09-01T08:44:32.052Z,50.42
2018-09-01T08:45:32.052Z,50.09
2018-09-01T08:46:32.028Z,49.87
2018-09-01T08:47:32.017Z,50.52
2018-09-01T08:48:32.006Z,48.42
2018-09-01T08:49:31.997Z,49.21
2018-09-01T08:50:32.008Z,50.76
2018-09-01T08:51:31.979Z,51.14
2018-09-01T08:52:31.966Z,50.01
2018-09-01T08:53:31.953Z,50.01
2018-09-01T08:54:31.941Z,51.49
2018-09-01T08:55:31.957Z,49.87
2018-09-01T08:56:31.939Z,49.76
2018-09-01T08:57:31.906Z,50.16
2018-09-01T08:58:31.941Z,49.74
2018-09-01T08:59:31.903Z,48.84
2018-09-01T09:00:32.664Z,49.19
2018-09-01T09:01:31.869Z,50.01
2018-09-01T09:02:31.860Z,48.99
2018-09-01T09:03:31.843Z,48.74
2018-09-01T09:04:31.835Z,48.32
2018-09-01T09:05:31.840Z,50.09
2018-09-01T09:06:31.806Z,51.34
2018-09-01T09:07:31.803Z,51.46
2018-09-01T09:08:31.784Z,51.11
2018-09-01T09:09:31.774Z,53.14
2018-09-01T09:10:31.776Z,54.68
2018-09-01T09:11:31.775Z,53.62
2018-09-01T09:12:31.739Z,51.24
2018-09-01T09:13:31.729Z,51.29
2018-09-01T09:14:31.720Z,53.65
2018-09-01T09:15:31.719Z,52.47
2018-09-01T09:16:31.696Z,53.52
2018-09-01T09:17:31.687Z,53.25
2018-09-01T09:18:31.682Z,49.18
2018-09-01T09:19:31.661Z,51.42
2018-09-01T09:20:31.680Z,52.24
2018-09-01T09:21:31.643Z,51.44
2018-09-01T09:22:31.627Z,53.77
2018-09-01T09:23:31.705Z,53.37
2018-09-01T09:24:31.606Z,54.00
2018-09-01T09:25:31.594Z,54.23
2018-09-01T09:26:31.675Z,54.38
2018-09-01T09:27:31.571Z,52.32
2018-09-01T09:28:31.564Z,53.55
2018-09-01T09:29:31.551Z,53.92
2018-09-01T09:30:31.543Z,53.30
2018-09-01T09:31:31.545Z,51.31
2018-09-01T09:32:31.523Z,52.62
2018-09-01T09:33:31.515Z,52.92
2018-09-01T09:34:31.543Z,53.67
2018-09-01T09:35:31.491Z,53.77
2018-09-01T09:36:31.494Z,53.50
2018-09-01T09:37:31.467Z,54.03
2018-09-01T09:38:31.453Z,54.23
2018-09-01T09:39:31.441Z,53.45
2018-09-01T09:40:31.453Z,54.88
2018-09-01T09:41:31.446Z,55.29
2018-09-01T09:42:31.417Z,55.41
2018-09-01T09:43:31.401Z,56.02
2018-09-01T09:44:31.389Z,57.45
2018-09-01T09:45:31.545Z,57.56
2018-09-01T09:46:31.388Z,57.65
2018-09-01T09:47:31.367Z,58.26
2018-09-01T09:48:31.348Z,56.65
2018-09-01T09:49:31.334Z,57.98
2018-09-01T09:50:31.323Z,58.69
2018-09-01T09:51:31.328Z,57.28
2018-09-01T09:52:31.310Z,58.29
2018-09-01T09:53:31.407Z,57.21
2018-09-01T09:54:31.282Z,58.29
2018-09-01T09:55:31.275Z,57.91
2018-09-01T09:56:31.283Z,58.39
2018-09-01T09:57:31.244Z,58.39
2018-09-01T09:58:31.234Z,58.49
2018-09-01T09:59:31.221Z,58.49
2018-09-01T10:00:31.216Z,58.62
2018-09-01T10:01:31.224Z,58.19
2018-09-01T10:02:31.196Z,57.81
2018-09-01T10:03:31.178Z,58.42
2018-09-01T10:04:31.169Z,58.49
2018-09-01T10:05:31.183Z,56.20
2018-09-01T10:06:31.160Z,56.68
2018-09-01T10:07:31.146Z,56.77
2018-09-01T10:08:31.126Z,57.58
2018-09-01T10:09:31.115Z,58.22
2018-09-01T10:10:31.101Z,57.51
2018-09-01T10:11:31.112Z,57.51
2018-09-01T10:12:31.103Z,57.43
2018-09-01T10:13:31.064Z,55.82
2018-09-01T10:14:31.056Z,55.72
2018-09-01T10:15:31.049Z,55.74
2018-09-01T10:16:31.055Z,55.82
2018-09-01T10:17:31.021Z,56.63
2018-09-01T10:18:31.011Z,56.73
2018-09-01T10:19:31.010Z,55.92
2018-09-01T10:20:31.005Z,56.12
2018-09-01T10:21:31.000Z,57.23
2018-09-01T10:22:30.979Z,57.67
2018-09-01T10:23:30.957Z,57.56
2018-09-01T10:24:30.958Z,55.74
2018-09-01T10:25:30.944Z,56.76
2018-09-01T10:26:30.936Z,57.14
2018-09-01T10:27:30.921Z,56.63
2018-09-01T10:28:30.909Z,57.64
2018-09-01T10:29:30.888Z,57.43
2018-09-01T10:30:30.893Z,56.63
2018-09-01T10:31:30.970Z,56.02
2018-09-01T10:32:30.953Z,56.73
2018-09-01T10:33:30.850Z,55.79
2018-09-01T10:34:30.852Z,56.02
2018-09-01T10:35:30.819Z,55.90
2018-09-01T10:36:30.827Z,57.10
2018-09-01T10:37:30.801Z,56.81
2018-09-01T10:38:30.918Z,56.10
2018-09-01T10:39:30.775Z,55.99
2018-09-01T10:40:30.919Z,56.48
2018-09-01T10:41:30.766Z,55.87
2018-09-01T10:42:30.752Z,54.96
2018-09-01T10:43:30.735Z,54.05
2018-09-01T10:44:30.863Z,55.26
2018-09-01T10:45:30.802Z,55.57
2018-09-01T10:46:30.709Z,55.84
2018-09-01T10:47:30.687Z,53.83
2018-09-01T10:48:30.864Z,55.44
2018-09-01T10:49:30.664Z,54.03
2018-09-01T10:50:30.820Z,53.42
2018-09-01T10:51:30.663Z,54.53
2018-09-01T10:52:30.636Z,54.03
2018-09-01T10:53:30.757Z,53.60
2018-09-01T10:54:30.615Z,55.31
2018-09-01T10:55:30.598Z,55.14
2018-09-01T10:56:30.600Z,55.04
2018-09-01T10:57:30.733Z,54.03
2018-09-01T10:58:30.565Z,54.21
2018-09-01T10:59:30.740Z,55.51
2018-09-01T11:00:30.547Z,54.83
2018-09-01T11:01:30.541Z,54.94
2018-09-01T11:02:30.521Z,55.34
2018-09-01T11:03:30.550Z,56.65
2018-09-01T11:04:30.499Z,56.15
2018-09-01T11:05:30.516Z,56.04
2018-09-01T11:06:30.487Z,55.64
2018-09-01T11:07:30.467Z,55.24
2018-09-01T11:08:30.458Z,55.04
2018-09-01T11:09:30.449Z,54.00
2018-09-01T11:10:30.431Z,56.02
2018-09-01T11:11:30.432Z,55.41
2018-09-01T11:12:30.408Z,55.62
2018-09-01T11:13:30.399Z,55.71
2018-09-01T11:14:30.387Z,53.60
2018-09-01T11:15:30.380Z,53.90
2018-09-01T11:16:30.384Z,53.70
2018-09-01T11:17:30.357Z,55.19
2018-09-01T11:18:30.342Z,55.69
2018-09-01T11:19:30.333Z,53.78
2018-09-01T11:20:30.326Z,54.08
2018-09-01T11:21:30.319Z,53.98
2018-09-01T11:22:30.302Z,54.18
2018-09-01T11:23:30.285Z,53.85
2018-09-01T11:24:30.281Z,53.65
2018-09-01T11:25:30.270Z,53.55
2018-09-01T11:26:30.284Z,52.14
2018-09-01T11:27:30.265Z,52.64
2018-09-01T11:28:30.232Z,53.14
2018-09-01T11:29:30.225Z,52.74
2018-09-01T11:30:30.212Z,53.02
2018-09-01T11:31:30.197Z,51.91
2018-09-01T11:32:30.199Z,52.72
2018-09-01T11:33:30.178Z,52.82
2018-09-01T11:34:30.188Z,51.61
2018-09-01T11:35:30.158Z,53.12
2018-09-01T11:36:30.149Z,52.92
2018-09-01T11:37:30.141Z,52.39
2018-09-01T11:38:30.122Z,52.19
2018-09-01T11:39:30.107Z,52.69
2018-09-01T11:40:30.100Z,53.17
2018-09-01T11:41:30.092Z,52.37
2018-09-01T11:42:30.108Z,51.06
2018-09-01T11:43:30.064Z,51.26
2018-09-01T11:44:30.054Z,51.66
2018-09-01T11:45:30.043Z,52.29
2018-09-01T11:46:30.034Z,52.37
2018-09-01T11:47:30.041Z,51.18
2018-09-01T11:48:30.022Z,52.09
2018-09-01T11:49:30.000Z,52.09
2018-09-01T11:50:29.989Z,52.59
2018-09-01T11:51:29.976Z,51.26
2018-09-01T11:52:29.978Z,51.46
2018-09-01T11:53:30.047Z,52.47
2018-09-01T11:54:29.945Z,52.80
2018-09-01T11:55:29.933Z,52.89
2018-09-01T11:56:29.932Z,54.28
2018-09-01T11:57:29.925Z,53.09
2018-09-01T11:58:29.921Z,52.39
2018-09-01T11:59:29.919Z,50.48
2018-09-01T12:00:29.881Z,51.59
2018-09-01T12:01:29.867Z,51.91
2018-09-01T12:02:29.864Z,52.59
2018-09-01T12:03:29.844Z,52.49
2018-09-01T12:04:29.835Z,52.31
2018-09-01T12:05:29.822Z,53.72
2018-09-01T12:06:29.809Z,53.60
2018-09-01T12:07:29.809Z,53.40
2018-09-01T12:08:29.790Z,51.71
2018-09-01T12:09:29.902Z,52.19
2018-09-01T12:10:29.765Z,51.59
2018-09-01T12:11:29.772Z,52.22
2018-09-01T12:12:29.764Z,51.71
2018-09-01T12:13:29.733Z,52.22
2018-09-01T12:14:29.724Z,51.91
2018-09-01T12:15:29.714Z,52.82
2018-09-01T12:16:29.702Z,51.93
2018-09-01T12:17:29.704Z,53.02
2018-09-01T12:18:29.677Z,52.34
2018-09-01T12:19:29.668Z,52.34
2018-09-01T12:20:29.663Z,53.95
2018-09-01T12:21:29.646Z,53.52
2018-09-01T12:22:29.644Z,55.13
2018-09-01T12:23:29.625Z,53.52
2018-09-01T12:24:29.732Z,53.52
2018-09-01T12:25:29.689Z,52.74
2018-09-01T12:26:29.587Z,53.02
2018-09-01T12:27:29.590Z,53.72
2018-09-01T12:28:29.750Z,53.32
2018-09-01T12:29:29.748Z,52.42
2018-09-01T12:30:29.547Z,52.82
2018-09-01T12:31:29.533Z,52.72
2018-09-01T12:32:29.533Z,52.92
2018-09-01T12:33:29.513Z,52.82
2018-09-01T12:34:29.506Z,52.22
2018-09-01T12:35:29.648Z,52.62
2018-09-01T12:36:29.482Z,53.32
2018-09-01T12:37:29.484Z,53.32
2018-09-01T12:38:29.460Z,53.12
2018-09-01T12:39:29.444Z,53.32
2018-09-01T12:40:29.433Z,53.32
2018-09-01T12:41:29.424Z,52.31
2018-09-01T12:42:29.425Z,52.84
2018-09-01T12:43:29.400Z,52.54
2018-09-01T12:44:29.392Z,52.11
2018-09-01T12:45:29.544Z,52.82
2018-09-01T12:46:29.370Z,52.72
2018-09-01T12:47:29.365Z,54.91
2018-09-01T12:48:29.346Z,53.90
2018-09-01T12:49:29.334Z,52.80
2018-09-01T12:50:29.327Z,52.49
2018-09-01T12:51:30.840Z,52.29
2018-09-01T12:52:29.311Z,53.70
2018-09-01T12:53:29.293Z,51.49
2018-09-01T12:54:29.279Z,53.70
2018-09-01T12:55:29.270Z,52.82
2018-09-01T12:56:29.257Z,50.40
2018-09-01T12:57:29.259Z,51.01
2018-09-01T12:58:29.235Z,52.42
2018-09-01T12:59:29.235Z,51.51
2018-09-01T13:00:29.214Z,51.61
2018-09-01T13:01:29.200Z,51.11
2018-09-01T13:02:29.205Z,51.71
2018-09-01T13:03:29.183Z,51.71
2018-09-01T13:04:29.167Z,51.61
2018-09-01T13:05:29.154Z,52.80
2018-09-01T13:06:29.162Z,49.88
2018-09-01T13:07:29.147Z,50.48
2018-09-01T13:08:29.124Z,50.18
2018-09-01T13:09:29.110Z,49.07
2018-09-01T13:10:29.109Z,49.85
2018-09-01T13:11:29.093Z,50.15
2018-09-01T13:12:29.090Z,50.86
2018-09-01T13:13:29.073Z,50.05
2018-09-01T13:14:29.061Z,49.85
2018-09-01T13:15:29.045Z,51.26
2018-09-01T13:16:29.035Z,49.65
2018-09-01T13:17:29.040Z,51.06
2018-09-01T13:18:29.015Z,50.05
2018-09-01T13:19:29.046Z,51.66
2018-09-01T13:20:28.992Z,51.79
2018-09-01T13:21:28.980Z,51.09
2018-09-01T13:22:28.981Z,51.49
2018-09-01T13:23:28.958Z,51.18
2018-09-01T13:24:28.948Z,51.31
2018-09-01T13:25:29.046Z,51.21
2018-09-01T13:26:28.923Z,51.39
2018-09-01T13:27:28.922Z,51.39
2018-09-01T13:28:28.904Z,50.91
2018-09-01T13:29:28.890Z,49.10
2018-09-01T13:30:28.881Z,49.90
2018-09-01T13:31:28.867Z,48.99
2018-09-01T13:32:28.885Z,50.10
2018-09-01T13:33:28.854Z,49.90
2018-09-01T13:34:28.873Z,48.99
2018-09-01T13:35:28.824Z,49.10
2018-09-01T13:36:28.815Z,47.99
2018-09-01T13:37:28.807Z,49.19
2018-09-01T13:38:28.803Z,49.30
2018-09-01T13:39:28.783Z,51.23
2018-09-01T13:40:28.777Z,51.31
2018-09-01T13:41:28.758Z,52.84
2018-09-01T13:42:28.747Z,51.23
2018-09-01T13:43:28.745Z,50.13
2018-09-01T13:44:28.735Z,50.93
2018-09-01T13:45:28.735Z,51.31
2018-09-01T13:46:28.706Z,50.71
2018-09-01T13:47:28.695Z,49.19
2018-09-01T13:48:28.690Z,49.10
2018-09-01T13:49:28.668Z,50.31
2018-09-01T13:50:28.656Z,52.62
2018-09-01T13:51:28.644Z,49.40
2018-09-01T13:52:28.635Z,51.41
2018-09-01T13:53:28.633Z,48.57
2018-09-01T13:54:28.612Z,48.69
2018-09-01T13:55:28.602Z,50.18
2018-09-01T13:56:28.592Z,50.48
2018-09-01T13:57:28.719Z,51.09
2018-09-01T13:58:28.589Z,50.18
2018-09-01T13:59:28.558Z,48.47
2018-09-01T14:00:28.559Z,48.37
2018-09-01T14:01:28.535Z,48.87
2018-09-01T14:02:28.526Z,49.68
2018-09-01T14:03:28.537Z,49.18
2018-09-01T14:04:28.502Z,48.27
2018-09-01T14:05:28.494Z,49.27
2018-09-01T14:06:28.480Z,49.98
2018-09-01T14:07:28.470Z,48.07
2018-09-01T14:08:28.468Z,49.57
2018-09-01T14:09:28.467Z,51.11
2018-09-01T14:10:28.435Z,51.61
2018-09-01T14:11:28.464Z,51.21
2018-09-01T14:12:28.412Z,51.23
2018-09-01T14:13:28.416Z,50.10
2018-09-01T14:14:28.486Z,50.63
2018-09-01T14:15:28.389Z,50.93
2018-09-01T14:16:28.372Z,50.63
2018-09-01T14:17:28.358Z,51.23
2018-09-01T14:18:28.362Z,51.56
2018-09-01T14:19:28.335Z,50.05
2018-09-01T14:20:28.329Z,51.86
2018-09-01T14:21:28.314Z,50.33
2018-09-01T14:22:28.305Z,51.26
2018-09-01T14:23:28.308Z,51.16
2018-09-01T14:24:28.285Z,51.06
2018-09-01T14:25:28.272Z,52.06
2018-09-01T14:26:28.260Z,52.37
2018-09-01T14:27:28.249Z,52.47
2018-09-01T14:28:28.252Z,51.86
2018-09-01T14:29:28.224Z,49.73
2018-09-01T14:30:28.216Z,50.45
2018-09-01T14:31:28.204Z,50.93
2018-09-01T14:32:28.193Z,49.42
2018-09-01T14:33:28.191Z,50.63
2018-09-01T14:34:28.170Z,51.23
2018-09-01T14:35:28.162Z,50.73
2018-09-01T14:36:28.221Z,48.39
2018-09-01T14:37:28.138Z,48.39
2018-09-01T14:38:28.155Z,48.41
2018-09-01T14:39:28.115Z,48.09
2018-09-01T14:40:28.105Z,51.01
2018-09-01T14:41:28.092Z,50.20
2018-09-01T14:42:28.092Z,48.77
2018-09-01T14:43:28.087Z,48.99
2018-09-01T14:44:28.060Z,48.97
2018-09-01T14:45:28.047Z,49.37
2018-09-01T14:46:28.039Z,49.07
2018-09-01T14:47:28.110Z,49.07
2018-09-01T14:48:28.046Z,49.48
2018-09-01T14:49:28.001Z,48.27
2018-09-01T14:50:28.012Z,49.30
2018-09-01T14:51:27.994Z,48.57
2018-09-01T14:52:27.972Z,48.09
2018-09-01T14:53:27.974Z,48.59
2018-09-01T14:54:27.952Z,48.69
2018-09-01T14:55:27.937Z,48.19
2018-09-01T14:56:27.925Z,48.29
2018-09-01T14:57:27.917Z,48.29
2018-09-01T14:58:27.915Z,47.79
2018-09-01T14:59:27.893Z,47.28
2018-09-01T15:00:27.884Z,47.49
2018-09-01T15:01:27.873Z,47.39
2018-09-01T15:02:27.860Z,47.79
2018-09-01T15:03:27.901Z,48.69
2018-09-01T15:04:27.839Z,47.08
2018-09-01T15:05:27.837Z,47.97
2018-09-01T15:06:27.824Z,48.37
2018-09-01T15:07:27.803Z,47.46
2018-09-01T15:08:27.837Z,48.57
2018-09-01T15:09:27.784Z,47.36
2018-09-01T15:10:27.840Z,48.37
2018-09-01T15:11:27.760Z,48.27
2018-09-01T15:12:27.751Z,47.64
2018-09-01T15:13:27.747Z,47.85
2018-09-01T15:14:27.785Z,47.44
2018-09-01T15:15:27.852Z,48.44
2018-09-01T15:16:27.725Z,47.24
2018-09-01T15:17:27.699Z,48.05
2018-09-01T15:18:27.916Z,47.14
2018-09-01T15:19:27.671Z,48.35
2018-09-01T15:20:27.664Z,48.14
2018-09-01T15:21:27.648Z,47.54
2018-09-01T15:22:27.895Z,48.22
2018-09-01T15:23:27.774Z,47.24
2018-09-01T15:24:27.617Z,47.34
2018-09-01T15:25:27.608Z,48.22
2018-09-01T15:26:27.594Z,48.05
2018-09-01T15:27:27.666Z,47.32
2018-09-01T15:28:27.605Z,47.42
2018-09-01T15:29:27.565Z,47.24
2018-09-01T15:30:27.552Z,46.51
2018-09-01T15:31:27.539Z,46.54
2018-09-01T15:32:27.601Z,47.44
2018-09-01T15:33:27.527Z,47.04
2018-09-01T15:34:27.556Z,48.14
2018-09-01T15:35:27.644Z,47.24
2018-09-01T15:36:27.483Z,47.34
2018-09-01T15:37:27.471Z,47.34
2018-09-01T15:38:27.478Z,47.94
2018-09-01T15:39:27.451Z,46.72
2018-09-01T15:40:27.462Z,48.22
2018-09-01T15:41:27.433Z,48.02
2018-09-01T15:42:27.417Z,47.22
2018-09-01T15:43:27.413Z,46.73
2018-09-01T15:44:27.573Z,47.42
2018-09-01T15:45:27.384Z,47.64
2018-09-01T15:46:27.375Z,46.23
2018-09-01T15:47:27.366Z,46.81
2018-09-01T15:48:27.357Z,46.23
2018-09-01T15:49:27.702Z,46.84
2018-09-01T15:50:27.329Z,47.02
2018-09-01T15:51:27.319Z,47.22
2018-09-01T15:52:27.307Z,46.94
2018-09-01T15:53:27.303Z,46.03
2018-09-01T15:54:27.300Z,46.73
2018-09-01T15:55:27.277Z,47.12
2018-09-01T15:56:27.323Z,46.94
2018-09-01T15:57:27.400Z,47.85
2018-09-01T15:58:27.310Z,48.05
2018-09-01T15:59:27.244Z,48.75
2018-09-01T16:00:27.357Z,48.14
2018-09-01T16:01:27.209Z,49.15
2018-09-01T16:02:27.199Z,48.55
2018-09-01T16:03:27.185Z,48.55
2018-09-01T16:04:27.188Z,49.37
2018-09-01T16:05:27.167Z,50.26
2018-09-01T16:06:27.155Z,48.87
2018-09-01T16:07:27.240Z,49.25
2018-09-01T16:08:27.325Z,49.07
2018-09-01T16:09:27.526Z,48.67
2018-09-01T16:10:27.111Z,48.97
2018-09-01T16:11:27.108Z,51.49
2018-09-01T16:12:27.286Z,50.38
2018-09-01T16:13:27.075Z,49.07
2018-09-01T16:14:27.079Z,49.07
2018-09-01T16:15:27.052Z,48.57
2018-09-01T16:16:27.042Z,49.07
2018-09-01T16:17:27.033Z,50.58
2018-09-01T16:18:27.024Z,51.29
2018-09-01T16:19:27.035Z,50.38
2018-09-01T16:20:26.996Z,51.39
2018-09-01T16:21:26.989Z,49.27
2018-09-01T16:22:27.214Z,49.27
2018-09-01T16:23:26.965Z,48.97
2018-09-01T16:24:27.028Z,49.48
2018-09-01T16:25:26.943Z,50.08
2018-09-01T16:26:27.029Z,51.09
2018-09-01T16:27:27.086Z,53.90
2018-09-01T16:28:26.911Z,50.68
2018-09-01T16:29:26.908Z,49.77
2018-09-01T16:30:26.887Z,50.31
2018-09-01T16:31:26.875Z,53.63
2018-09-01T16:32:27.711Z,55.43
2018-09-01T16:33:26.854Z,52.82
2018-09-01T16:34:26.855Z,53.63
2018-09-01T16:35:26.831Z,51.91
2018-09-01T16:36:26.821Z,52.62
2018-09-01T16:37:26.810Z,50.40
2018-09-01T16:38:26.798Z,50.40
2018-09-01T16:39:26.798Z,53.72
2018-09-01T16:40:26.826Z,57.35
2018-09-01T16:41:26.773Z,58.55
2018-09-01T16:42:26.756Z,53.32
2018-09-01T16:43:26.743Z,54.33
2018-09-01T16:44:26.745Z,55.74
2018-09-01T16:45:26.720Z,57.37
2018-09-01T16:46:26.714Z,57.45
2018-09-01T16:47:26.702Z,57.48
2018-09-01T16:48:26.687Z,57.48
2018-09-01T16:49:26.689Z,56.57
2018-09-01T16:50:26.668Z,55.96
2018-09-01T16:51:26.658Z,59.79
2018-09-01T16:52:26.647Z,58.07